Time;durP1;ratioP1;P1;durP2;ratioP2;P2;SDS_P1;SDS_P2;PMS_P1;PMS_P2;Temp;Humidity;BMP_temperature;BMP_pressure;BME280_temperature;BME280_humidity;BME280_pressure;Samples;Min_cycle;Max_cycle;Signal;HPM_P1;HPM_P2
2022/06/10 00:01:00;;;;;;;9.48;3.70;;;;;;;19.50;65.79;98367.53;1630080;87;21563;-80
2022/06/10 00:03:28;;;;;;;7.97;3.37;;;;;;;19.45;65.59;98372.67;1626528;87;21045;-79
2022/06/10 00:05:59;;;;;;;9.58;3.62;;;;;;;19.41;65.86;98376.97;1617056;87;21623;-80
2022/06/10 00:08:33;;;;;;;7.83;4.05;;;;;;;19.38;65.84;98387.75;1598332;88;21748;-80
2022/06/10 00:11:01;;;;;;;8.68;4.00;;;;;;;19.32;65.18;98385.08;1653059;86;21065;-78
2022/06/10 00:13:31;;;;;;;8.43;3.60;;;;;;;19.25;65.38;98395.20;1660023;86;21282;-81
2022/06/10 00:15:59;;;;;;;8.58;3.90;;;;;;;19.19;65.67;98390.38;1653611;86;21552;-79
2022/06/10 00:18:29;;;;;;;10.82;4.15;;;;;;;19.14;66.42;98388.56;1625705;86;21093;-79
2022/06/10 00:20:56;;;;;;;9.15;3.92;;;;;;;19.13;66.34;98391.30;1651755;86;21093;-79
2022/06/10 00:23:23;;;;;;;7.60;3.80;;;;;;;19.07;66.97;98388.14;1627379;86;21059;-80
2022/06/10 00:25:49;;;;;;;7.47;4.15;;;;;;;19.04;67.21;98384.91;1660247;86;21058;-80
2022/06/10 00:28:17;;;;;;;7.33;4.03;;;;;;;18.98;66.15;98391.45;1660841;86;21646;-79
2022/06/10 00:30:44;;;;;;;9.80;4.33;;;;;;;18.91;67.27;98391.50;1659854;86;21033;-79
2022/06/10 00:33:12;;;;;;;7.40;3.75;;;;;;;18.85;67.16;98387.50;1660886;86;21072;-79
2022/06/10 00:35:39;;;;;;;9.83;3.37;;;;;;;18.83;66.49;98395.98;1657399;86;21555;-79
2022/06/10 00:38:07;;;;;;;10.78;3.60;;;;;;;18.77;67.49;98392.44;1661008;86;21071;-79
2022/06/10 00:40:39;;;;;;;8.45;3.20;;;;;;;18.75;67.66;98400.92;1659748;86;21083;-79
2022/06/10 00:43:06;;;;;;;8.28;3.60;;;;;;;18.75;67.20;98395.66;1661209;86;21055;-80
2022/06/10 00:46:00;;;;;;;6.97;4.00;;;;;;;18.73;68.57;98388.82;1660796;86;21060;-79
2022/06/10 00:48:59;;;;;;;11.75;3.30;;;;;;;18.73;68.40;98389.66;1647783;86;21037;-80
2022/06/10 00:51:50;;;;;;;8.35;3.58;;;;;;;18.73;67.54;98392.77;1657827;86;21527;-79
2022/06/10 00:54:37;;;;;;;8.05;3.50;;;;;;;18.65;68.34;98396.77;1660463;86;21067;-79
2022/06/10 00:57:15;;;;;;;10.32;3.77;;;;;;;18.65;68.16;98399.87;1650181;86;21597;-80
2022/06/10 00:59:51;;;;;;;9.20;4.12;;;;;;;18.64;68.61;98402.99;1642220;86;21070;-79
2022/06/10 01:02:23;;;;;;;9.55;4.03;;;;;;;18.61;69.30;98399.72;1644025;86;21051;-79
2022/06/10 01:04:50;;;;;;;8.18;3.80;;;;;;;18.57;68.85;98400.41;1650579;86;21588;-80
2022/06/10 01:07:21;;;;;;;7.53;3.95;;;;;;;18.55;68.86;98406.73;1657669;86;21096;-79
2022/06/10 01:09:49;;;;;;;12.23;4.35;;;;;;;18.52;68.66;98410.88;1650150;86;21125;-79
2022/06/10 01:12:33;;;;;;;9.30;3.75;;;;;;;18.50;68.58;98409.66;1660398;86;21036;-79
2022/06/10 01:15:15;;;;;;;8.20;4.05;;;;;;;18.45;69.54;98417.88;1660911;86;21088;-79
2022/06/10 01:18:11;;;;;;;8.90;3.90;;;;;;;18.41;69.84;98419.03;1659605;86;21063;-79
2022/06/10 01:21:06;;;;;;;7.17;3.80;;;;;;;18.39;68.09;98419.61;1660930;86;21048;-80
2022/06/10 01:24:00;;;;;;;7.95;3.90;;;;;;;18.37;67.93;98424.14;1657443;86;21084;-79
2022/06/10 01:30:21;;;;;;;7.83;3.72;;;;;;;18.33;69.04;98427.92;1659746;86;21005;-79
2022/06/10 01:33:11;;;;;;;7.90;3.95;;;;;;;18.31;67.87;98426.35;1634155;86;21080;-79
2022/06/10 01:35:52;;;;;;;6.03;3.45;;;;;;;18.28;68.42;98428.25;1659828;86;21040;-80
2022/06/10 01:38:26;;;;;;;9.20;3.60;;;;;;;18.29;68.12;98431.23;1660196;86;21536;-80
2022/06/10 01:41:17;;;;;;;9.35;3.77;;;;;;;18.32;68.31;98433.28;1653144;86;21044;-79
2022/06/10 01:44:09;;;;;;;9.20;3.65;;;;;;;18.36;69.80;98436.91;1656504;86;21052;-80
2022/06/10 01:46:43;;;;;;;15.75;4.65;;;;;;;18.38;68.97;98442.94;1660872;86;21039;-80
2022/06/10 01:49:33;;;;;;;8.93;4.10;;;;;;;18.41;69.06;98446.67;1660055;86;21047;-80
2022/06/10 01:52:23;;;;;;;10.82;3.85;;;;;;;18.45;69.12;98451.26;1660742;86;21564;-81
2022/06/10 01:55:10;;;;;;;8.28;3.75;;;;;;;18.50;69.68;98453.09;1657002;86;21068;-80
2022/06/10 01:58:06;;;;;;;10.75;3.98;;;;;;;18.53;69.47;98450.74;1653543;86;21014;-79
2022/06/10 02:00:37;;;;;;;11.15;4.03;;;;;;;18.54;69.32;98451.93;1651530;86;21529;-80
2022/06/10 02:03:36;;;;;;;11.80;4.50;;;;;;;18.54;69.52;98453.73;1614540;87;21049;-81
2022/06/10 02:06:11;;;;;;;8.05;4.05;;;;;;;18.55;69.44;98460.21;1660403;86;21093;-80
2022/06/10 02:08:59;;;;;;;13.48;4.20;;;;;;;18.56;68.98;98461.05;1655811;86;21056;-79
2022/06/10 02:11:27;;;;;;;9.95;4.40;;;;;;;18.57;69.54;98470.64;1659923;86;21816;-80
2022/06/10 02:13:59;;;;;;;11.55;4.67;;;;;;;18.54;69.26;98470.36;1660817;86;21536;-80
2022/06/10 02:16:30;;;;;;;12.68;4.30;;;;;;;18.55;70.49;98468.59;1651674;86;21574;-80
2022/06/10 02:19:08;;;;;;;10.82;4.40;;;;;;;18.53;68.22;98469.16;1639803;86;21030;-81
2022/06/10 02:22:04;;;;;;;8.98;4.90;;;;;;;18.46;68.92;98468.27;1658045;86;21076;-81
2022/06/10 02:24:39;;;;;;;10.48;4.25;;;;;;;18.44;69.41;98479.38;1647499;86;22378;-80
2022/06/10 02:27:10;;;;;;;10.25;4.10;;;;;;;18.44;69.10;98483.77;1659509;86;21058;-81
2022/06/10 02:30:04;;;;;;;9.75;4.50;;;;;;;18.42;68.21;98481.27;1627694;86;21046;-81
2022/06/10 02:32:31;;;;;;;7.25;4.05;;;;;;;18.42;68.57;98483.89;1651076;86;21001;-81
2022/06/10 02:34:58;;;;;;;11.95;4.10;;;;;;;18.41;68.66;98480.88;1661305;86;21101;-81
2022/06/10 02:37:51;;;;;;;10.38;4.50;;;;;;;18.40;69.42;98480.53;1661763;86;21039;-81
2022/06/10 02:40:32;;;;;;;11.28;4.37;;;;;;;18.38;68.12;98473.66;1660652;86;21071;-80
2022/06/10 02:43:13;;;;;;;11.85;4.10;;;;;;;18.37;68.96;98481.20;1649083;86;21120;-80
2022/06/10 02:46:12;;;;;;;11.35;4.42;;;;;;;18.37;69.39;98486.46;1660195;86;21590;-80
2022/06/10 02:48:53;;;;;;;8.38;4.05;;;;;;;18.38;68.81;98486.37;1659407;86;21055;-80
2022/06/10 02:51:19;;;;;;;10.93;4.42;;;;;;;18.36;69.35;98482.96;1648321;86;21015;-80
2022/06/10 02:53:47;;;;;;;13.25;4.85;;;;;;;18.38;69.64;98483.73;1659606;86;21085;-80
2022/06/10 02:56:22;;;;;;;13.20;4.47;;;;;;;18.42;69.96;98485.22;1654679;86;21040;-80
2022/06/10 03:02:03;;;;;;;13.10;5.22;;;;;;;18.51;70.10;98480.27;1657564;86;21037;-80
2022/06/10 03:04:35;;;;;;;12.98;4.58;;;;;;;18.56;70.13;98482.10;1653908;86;21097;-80
2022/06/10 03:07:29;;;;;;;13.88;5.58;;;;;;;18.58;69.64;98482.39;1649611;86;21177;-79
2022/06/10 03:10:10;;;;;;;12.63;4.92;;;;;;;18.60;69.54;98488.39;1653625;86;21570;-81
2022/06/10 03:13:15;;;;;;;16.77;4.90;;;;;;;18.64;69.05;98486.38;1640037;86;21065;-80
2022/06/10 03:16:06;;;;;;;13.30;4.62;;;;;;;18.66;69.12;98490.61;1623148;87;21062;-79
2022/06/10 03:18:44;;;;;;;11.78;3.90;;;;;;;18.70;68.99;98495.16;1643798;86;21053;-79
2022/06/10 03:21:25;;;;;;;15.70;4.42;;;;;;;18.72;68.83;98502.97;1637023;87;21078;-81
2022/06/10 03:24:06;;;;;;;12.05;4.42;;;;;;;18.73;68.75;98497.61;1646650;86;21021;-80
2022/06/10 03:27:01;;;;;;;10.18;4.30;;;;;;;18.76;69.09;98506.63;1648888;86;21041;-80
2022/06/10 03:29:52;;;;;;;9.30;4.35;;;;;;;18.78;68.92;98508.68;1642882;87;21061;-81
2022/06/10 03:32:41;;;;;;;7.58;4.20;;;;;;;18.81;69.15;98512.44;1660125;86;21009;-80
2022/06/10 03:35:16;;;;;;;8.95;4.20;;;;;;;18.86;68.60;98511.66;1640313;86;21100;-80
2022/06/10 03:37:43;;;;;;;8.10;4.55;;;;;;;18.87;68.36;98521.23;1647067;87;21036;-80
2022/06/10 03:40:18;;;;;;;9.48;4.45;;;;;;;18.91;68.98;98511.34;1647485;86;21048;-80
2022/06/10 03:42:49;;;;;;;17.87;4.72;;;;;;;18.94;68.46;98508.50;1647129;86;21036;-78
2022/06/10 03:45:20;;;;;;;9.68;4.60;;;;;;;18.97;68.23;98517.98;1636826;87;21092;-79
2022/06/10 03:47:47;;;;;;;9.35;4.30;;;;;;;19.00;67.59;98523.89;1646121;86;21575;-84
2022/06/10 03:50:19;;;;;;;14.43;4.92;;;;;;;18.98;67.55;98520.97;1645495;87;21048;-79
2022/06/10 03:52:46;;;;;;;13.13;4.17;;;;;;;19.00;68.16;98528.29;1646518;86;21048;-78
2022/06/10 03:55:17;;;;;;;9.48;3.90;;;;;;;19.05;68.08;98523.56;1640543;86;21090;-79
2022/06/10 03:57:45;;;;;;;12.68;4.70;;;;;;;19.11;67.88;98520.98;1634655;86;21141;-79
2022/06/10 04:00:20;;;;;;;7.35;4.03;;;;;;;19.17;67.11;98524.02;1636860;86;21549;-79
2022/06/10 04:02:46;;;;;;;7.33;4.33;;;;;;;19.19;67.20;98519.48;1643441;87;21084;-79
2022/06/10 04:05:13;;;;;;;14.18;4.95;;;;;;;19.28;67.55;98528.08;1646089;86;21021;-79
2022/06/10 04:07:41;;;;;;;10.15;3.95;;;;;;;19.36;67.31;98526.68;1645841;86;21080;-79
2022/06/10 04:10:12;;;;;;;9.65;4.00;;;;;;;19.38;67.45;98528.28;1645156;86;21101;-84
2022/06/10 04:12:39;;;;;;;12.00;4.03;;;;;;;19.50;67.54;98530.98;1646198;86;21048;-82
2022/06/10 04:15:07;;;;;;;6.65;3.92;;;;;;;19.59;67.55;98532.49;1651135;86;20981;-79
2022/06/10 04:17:34;;;;;;;11.05;4.60;;;;;;;19.74;67.45;98529.77;1644265;87;21065;-79
2022/06/10 04:20:03;;;;;;;11.05;4.60;;;;;;;19.90;67.23;98534.30;1646162;86;21893;-79
2022/06/10 04:22:30;;;;;;;7.08;4.33;;;;;;;20.06;66.81;98532.70;1645734;86;21597;-79
2022/06/10 04:24:57;;;;;;;13.85;5.50;;;;;;;20.20;66.36;98542.25;1646131;86;21509;-80
2022/06/10 04:27:24;;;;;;;9.40;4.87;;;;;;;20.33;66.21;98540.37;1642251;86;21358;-79
2022/06/10 04:29:50;;;;;;;8.03;4.90;;;;;;;20.49;65.82;98533.95;1646437;86;21489;-79
2022/06/10 04:32:17;;;;;;;9.73;5.17;;;;;;;20.61;65.18;98539.66;1645902;86;21021;-79
2022/06/10 04:34:44;;;;;;;7.47;4.92;;;;;;;20.73;64.84;98547.14;1645246;86;21104;-79
2022/06/10 04:37:11;;;;;;;9.58;4.60;;;;;;;20.84;64.50;98543.22;1645817;86;21036;-80
2022/06/10 04:39:37;;;;;;;7.25;4.87;;;;;;;20.97;64.30;98547.07;1623894;87;20985;-79
2022/06/10 04:42:05;;;;;;;13.75;5.65;;;;;;;21.04;63.11;98545.66;1645514;87;21040;-79
2022/06/10 04:44:32;;;;;;;7.90;4.55;;;;;;;21.05;63.25;98549.51;1646303;86;21030;-80
2022/06/10 04:46:59;;;;;;;9.50;4.90;;;;;;;21.16;62.73;98549.16;1645656;87;21037;-79
2022/06/10 04:49:26;;;;;;;7.90;4.40;;;;;;;21.19;62.83;98549.77;1645943;86;21009;-79
2022/06/10 04:51:52;;;;;;;8.35;3.72;;;;;;;21.30;62.35;98549.41;1645396;86;21028;-79
2022/06/10 04:54:19;;;;;;;11.30;4.70;;;;;;;21.35;62.16;98553.86;1646323;86;21024;-79
2022/06/10 04:56:46;;;;;;;10.48;4.05;;;;;;;21.38;62.04;98555.77;1632843;86;21572;-79
2022/06/10 04:59:12;;;;;;;8.68;3.70;;;;;;;21.39;61.20;98560.59;1641054;86;21085;-80
2022/06/10 05:01:39;;;;;;;8.13;3.55;;;;;;;21.43;61.14;98558.10;1642501;86;21551;-79
2022/06/10 05:04:05;;;;;;;11.00;4.00;;;;;;;21.52;61.38;98565.29;1638238;86;21047;-80
2022/06/10 05:06:32;;;;;;;10.53;4.08;;;;;;;21.59;61.24;98578.89;1631277;86;21157;-80
2022/06/10 05:08:59;;;;;;;9.33;4.00;;;;;;;21.67;61.30;98582.27;1618943;88;21065;-80
2022/06/10 05:11:25;;;;;;;9.85;3.72;;;;;;;21.74;61.12;98584.27;1646290;86;21046;-80
2022/06/10 05:13:53;;;;;;;13.28;4.08;;;;;;;21.81;60.68;98589.45;1651101;86;21084;-80
2022/06/10 05:16:20;;;;;;;9.08;4.00;;;;;;;21.89;60.51;98588.02;1651990;86;21545;-80
2022/06/10 05:18:46;;;;;;;10.80;4.03;;;;;;;21.95;60.50;98584.37;1622247;86;21116;-80
2022/06/10 05:21:13;;;;;;;9.08;4.42;;;;;;;22.04;60.34;98586.76;1653727;86;21058;-81
2022/06/10 05:23:44;;;;;;;10.82;4.53;;;;;;;22.11;60.43;98584.48;1636356;87;21105;-79
2022/06/10 05:26:09;;;;;;;5.58;3.33;;;;;;;22.17;59.52;98585.30;1654235;86;21069;-80
2022/06/10 05:28:36;;;;;;;6.62;2.95;;;;;;;22.30;59.00;98590.46;1640107;87;21045;-80
2022/06/10 05:31:02;;;;;;;6.58;3.33;;;;;;;22.31;58.55;98591.66;1650688;86;21577;-80
2022/06/10 05:34:44;;;;;;;9.90;3.47;;;;;;;22.36;58.46;98595.25;1644026;86;21045;-81
2022/06/10 05:35:58;;;;;;;5.97;3.27;;;;;;;22.38;57.09;98594.64;1656140;86;21524;-80
2022/06/10 05:38:24;;;;;;;5.83;3.00;;;;;;;22.30;56.39;98597.08;1660602;86;21064;-80
2022/06/10 05:40:51;;;;;;;5.60;2.85;;;;;;;22.31;56.71;98589.02;1660235;86;21023;-79
2022/06/10 05:43:18;;;;;;;6.90;3.05;;;;;;;22.30;56.05;98595.75;1661100;86;21000;-80
2022/06/10 05:45:45;;;;;;;5.53;3.08;;;;;;;22.29;55.81;98586.98;1660538;86;21012;-81
2022/06/10 05:48:12;;;;;;;9.65;3.35;;;;;;;22.29;56.09;98594.09;1659679;86;21021;-81
2022/06/10 05:50:42;;;;;;;8.60;3.20;;;;;;;22.28;55.45;98602.98;1660392;86;21032;-80
2022/06/10 05:53:12;;;;;;;9.05;2.83;;;;;;;22.31;55.69;98594.31;1661021;86;21076;-79
2022/06/10 05:55:39;;;;;;;6.60;3.20;;;;;;;22.33;55.61;98604.30;1660533;86;21009;-80
2022/06/10 05:58:06;;;;;;;9.00;3.30;;;;;;;22.27;54.80;98599.50;1649651;86;21094;-81
2022/06/10 06:00:33;;;;;;;10.05;3.45;;;;;;;22.26;55.00;98600.94;1624619;86;21049;-86
2022/06/10 06:03:00;;;;;;;7.08;3.72;;;;;;;22.27;55.24;98613.23;1662325;86;21066;-84
2022/06/10 06:05:28;;;;;;;6.03;3.47;;;;;;;22.31;55.47;98610.69;1663669;86;21007;-83
2022/06/10 06:07:54;;;;;;;10.75;5.20;;;;;;;22.34;55.16;98621.88;1662138;86;21043;-80
2022/06/10 06:10:25;;;;;;;12.43;5.72;;;;;;;22.36;54.59;98623.92;1657058;86;21021;-78
2022/06/10 06:12:53;;;;;;;10.85;6.65;;;;;;;22.31;54.61;98620.80;1644861;87;21067;-84
2022/06/10 06:15:20;;;;;;;11.48;6.67;;;;;;;22.30;55.22;98627.53;1643196;86;21078;-79
2022/06/10 06:17:50;;;;;;;5.70;3.22;;;;;;;22.26;54.75;98638.02;1642259;86;21036;-80
2022/06/10 06:20:19;;;;;;;10.32;5.17;;;;;;;22.34;55.38;98626.31;1643167;86;21025;-80
2022/06/10 06:22:46;;;;;;;11.12;6.97;;;;;;;22.38;55.63;98627.28;1645465;86;21148;-81
2022/06/10 06:25:16;;;;;;;6.75;4.00;;;;;;;22.46;55.48;98624.48;1643695;86;21087;-83
2022/06/10 06:27:52;;;;;;;7.15;4.53;;;;;;;22.47;55.35;98628.83;1643050;86;21628;-79
2022/06/10 06:30:30;;;;;;;10.18;4.05;;;;;;;22.39;55.68;98627.63;1617995;87;21571;-78
2022/06/10 06:32:58;;;;;;;9.95;4.80;;;;;;;22.42;55.55;98635.80;1643529;87;21063;-80
2022/06/10 06:35:24;;;;;;;10.03;4.33;;;;;;;22.44;55.40;98636.05;1644301;86;21036;-79
2022/06/10 06:37:52;;;;;;;7.95;3.80;;;;;;;22.51;55.26;98639.03;1643459;86;21025;-79
2022/06/10 06:40:19;;;;;;;6.10;3.55;;;;;;;22.62;55.16;98636.81;1644367;86;21629;-78
2022/06/10 06:42:47;;;;;;;12.82;4.78;;;;;;;22.59;54.83;98641.06;1643899;86;20998;-77
2022/06/10 06:45:16;;;;;;;5.67;3.65;;;;;;;22.57;55.05;98639.02;1642900;87;21021;-79
2022/06/10 06:47:43;;;;;;;10.50;5.25;;;;;;;22.57;54.85;98641.67;1643095;86;21032;-79
2022/06/10 06:50:14;;;;;;;6.80;3.62;;;;;;;22.50;55.17;98642.66;1643936;86;21002;-77
2022/06/10 06:52:42;;;;;;;22.45;6.83;;;;;;;22.55;54.88;98644.92;1641844;87;21521;-79
2022/06/10 06:55:10;;;;;;;7.72;5.03;;;;;;;22.47;55.09;98644.23;1644311;87;21096;-79
2022/06/10 06:57:37;;;;;;;15.48;6.28;;;;;;;22.53;54.97;98644.21;1643891;86;21195;-78
2022/06/10 07:00:06;;;;;;;7.95;5.17;;;;;;;22.59;54.68;98651.66;1642750;87;21061;-84
2022/06/10 07:02:36;;;;;;;16.55;6.47;;;;;;;22.60;54.29;98652.86;1642244;86;21054;-80
2022/06/10 07:05:08;;;;;;;9.00;5.28;;;;;;;22.63;54.02;98653.08;1641180;86;21129;-81
2022/06/10 07:07:35;;;;;;;7.78;4.17;;;;;;;22.70;53.50;98659.58;1642519;86;21035;-79
2022/06/10 07:10:03;;;;;;;8.68;4.90;;;;;;;22.81;53.85;98652.89;1644018;86;21024;-83
2022/06/10 07:12:29;;;;;;;6.97;4.30;;;;;;;22.91;52.55;98658.76;1644934;86;22023;-80
2022/06/10 07:14:56;;;;;;;9.40;3.62;;;;;;;22.97;52.37;98655.59;1643491;86;21033;-79
2022/06/10 07:17:23;;;;;;;8.10;4.92;;;;;;;23.14;52.61;98648.90;1645242;86;21595;-82
2022/06/10 07:19:51;;;;;;;9.10;4.12;;;;;;;23.29;52.14;98654.73;1643382;86;21009;-78
2022/06/10 07:22:18;;;;;;;10.23;4.22;;;;;;;23.44;52.28;98662.73;1643116;86;21007;-77
2022/06/10 07:24:46;;;;;;;8.58;4.25;;;;;;;23.54;50.94;98670.74;1644596;87;21094;-79
2022/06/10 07:27:13;;;;;;;7.70;3.55;;;;;;;23.54;51.83;98670.25;1643611;86;21146;-79
2022/06/10 07:29:39;;;;;;;6.03;3.02;;;;;;;23.54;51.59;98665.44;1641546;86;21029;-84
2022/06/10 07:32:07;;;;;;;10.65;3.55;;;;;;;23.51;51.09;98664.36;1643715;86;21082;-84
2022/06/10 07:34:33;;;;;;;6.28;3.40;;;;;;;23.34;51.51;98662.66;1643600;87;21016;-81
2022/06/10 07:37:00;;;;;;;5.83;2.80;;;;;;;23.36;51.75;98660.72;1645331;86;21064;-84
2022/06/10 07:39:28;;;;;;;7.08;3.77;;;;;;;23.42;50.47;98662.02;1646521;86;21014;-81
2022/06/10 07:41:58;;;;;;;8.15;3.02;;;;;;;23.45;51.22;98668.37;1640612;87;21105;-81
2022/06/10 07:44:30;;;;;;;7.08;3.22;;;;;;;23.48;51.33;98664.14;1644497;87;21052;-83
2022/06/10 07:47:01;;;;;;;9.45;3.40;;;;;;;23.47;50.42;98660.28;1642832;87;21046;-84
2022/06/10 07:49:29;;;;;;;5.65;3.52;;;;;;;23.44;49.88;98660.08;1643816;87;21073;-83
2022/06/10 07:51:57;;;;;;;6.30;4.22;;;;;;;23.53;50.37;98655.78;1645205;86;21512;-81
2022/06/10 07:54:24;;;;;;;8.43;4.20;;;;;;;23.67;50.53;98651.45;1607330;88;21499;-82
2022/06/10 07:56:51;;;;;;;5.45;3.25;;;;;;;23.80;49.30;98653.93;1597650;88;21010;-84
2022/06/10 07:59:18;;;;;;;7.65;3.33;;;;;;;23.86;48.68;98655.22;1604556;88;21225;-81
2022/06/10 08:01:45;;;;;;;5.05;2.50;;;;;;;24.00;48.95;98657.50;1601193;88;21677;-79
2022/06/10 08:04:12;;;;;;;9.18;2.47;;;;;;;24.04;48.20;98664.22;1600679;88;21087;-84
2022/06/10 08:06:43;;;;;;;7.17;3.00;;;;;;;23.99;47.14;98672.59;1634821;82;21057;-81
2022/06/10 08:09:11;;;;;;;8.55;2.55;;;;;;;23.95;47.69;98661.03;1707514;84;21078;-82
2022/06/10 08:11:38;;;;;;;6.37;3.00;;;;;;;24.19;47.69;98672.63;1710842;82;21133;-84
2022/06/10 08:14:06;;;;;;;8.00;2.52;;;;;;;24.30;47.70;98663.23;1707374;83;21523;-83
2022/06/10 08:16:36;;;;;;;6.95;2.65;;;;;;;24.46;47.06;98663.20;1707967;82;22209;-87
2022/06/10 08:19:03;;;;;;;8.28;3.35;;;;;;;24.62;46.74;98660.88;1709750;82;21152;-85
2022/06/10 08:22:32;;;;;;;7.92;3.33;;;;;;;24.65;46.47;98661.95;1748628;81;20998;-85
2022/06/10 08:23:58;;;;;;;8.78;2.27;;;;;;;24.77;46.25;98659.50;1744407;81;21003;-85
2022/06/10 08:26:25;;;;;;;6.78;2.70;;;;;;;24.86;46.88;98660.97;1748757;82;20963;-85
2022/06/10 08:28:55;;;;;;;10.78;3.30;;;;;;;24.95;46.36;98666.78;1680401;84;21070;-84
2022/06/10 08:31:21;;;;;;;5.20;2.20;;;;;;;24.89;45.43;98662.86;1704953;81;21058;-83
2022/06/10 08:33:48;;;;;;;4.75;2.10;;;;;;;24.97;46.67;98664.81;1747636;81;21019;-83
2022/06/10 08:36:15;;;;;;;5.97;3.33;;;;;;;25.01;45.77;98670.20;1745486;82;21021;-85
2022/06/10 08:38:42;;;;;;;7.45;2.62;;;;;;;25.09;46.25;98680.97;1745938;80;20998;-82
2022/06/10 08:41:26;;;;;;;4.85;2.22;;;;;;;25.14;45.86;98681.38;1750571;80;21050;-80
2022/06/10 08:44:07;;;;;;;6.08;3.02;;;;;;;25.17;45.33;98677.61;1704037;82;21491;-86
2022/06/10 08:47:11;;;;;;;6.65;2.75;;;;;;;25.22;46.04;98683.36;1752142;81;20995;-86
2022/06/10 08:50:07;;;;;;;5.78;2.20;;;;;;;25.31;45.65;98680.36;1737907;80;20970;-80
2022/06/10 08:52:48;;;;;;;7.22;2.30;;;;;;;25.35;45.01;98689.23;1749058;82;20974;-81
2022/06/10 08:55:51;;;;;;;8.88;2.58;;;;;;;25.36;45.40;98686.08;1748999;80;21039;-85
2022/06/10 08:58:26;;;;;;;6.07;2.23;;;;;;;25.35;45.34;98684.41;1723207;82;21129;-80
2022/06/10 09:01:02;;;;;;;7.37;4.25;;;;;;;25.37;45.08;98683.77;1750158;80;20986;-79
2022/06/10 09:03:40;;;;;;;7.92;4.50;;;;;;;25.38;45.25;98694.75;1748619;80;21006;-83
2022/06/10 09:06:18;;;;;;;5.35;2.58;;;;;;;25.38;44.61;98691.59;1749970;82;20989;-80
2022/06/10 09:08:49;;;;;;;9.38;2.85;;;;;;;25.45;44.95;98700.36;1768720;79;20984;-86
2022/06/10 09:11:32;;;;;;;9.10;2.15;;;;;;;25.56;44.32;98691.70;1706192;82;21053;-76
2022/06/10 09:14:17;;;;;;;4.15;2.40;;;;;;;25.57;44.35;98701.38;1736631;81;21066;-78
2022/06/10 09:17:04;;;;;;;5.92;2.40;;;;;;;25.53;44.65;98701.31;1733280;81;21458;-81
2022/06/10 09:19:41;;;;;;;7.85;2.80;;;;;;;25.59;44.53;98703.41;1731002;81;21620;-79
2022/06/10 09:22:35;;;;;;;8.35;2.47;;;;;;;25.57;44.35;98697.38;1731303;81;21018;-79
2022/06/10 09:25:26;;;;;;;7.20;2.42;;;;;;;25.64;44.48;98707.45;1730840;81;21021;-79
2022/06/10 09:27:57;;;;;;;4.37;2.42;;;;;;;25.76;44.74;98706.30;1739218;81;20994;-78
2022/06/10 09:30:56;;;;;;;5.87;2.67;;;;;;;25.84;44.59;98705.07;1729972;81;21549;-78
2022/06/10 09:33:37;;;;;;;4.25;2.60;;;;;;;25.94;44.53;98707.27;1770627;80;21602;-79
2022/06/10 09:36:21;;;;;;;4.58;2.62;;;;;;;26.07;44.25;98707.42;1770891;80;21027;-77
2022/06/10 09:39:02;;;;;;;5.62;1.90;;;;;;;26.17;44.09;98700.22;1732774;81;21064;-78
2022/06/10 09:41:46;;;;;;;4.70;2.47;;;;;;;26.30;44.00;98701.19;1733529;82;21536;-80
2022/06/10 09:44:35;;;;;;;5.58;2.90;;;;;;;26.28;43.43;98701.84;1721373;82;21034;-79
2022/06/10 09:47:45;;;;;;;3.40;1.87;;;;;;;26.41;43.89;98709.50;1724205;82;21093;-81
2022/06/10 09:50:56;;;;;;;6.92;2.70;;;;;;;26.52;42.47;98707.47;1726409;82;21514;-78
2022/06/10 09:53:31;;;;;;;6.28;3.00;;;;;;;26.50;43.60;98704.59;1726492;82;21536;-79
2022/06/10 09:56:20;;;;;;;5.05;2.25;;;;;;;26.62;43.41;98708.77;1729558;81;21019;-78
2022/06/10 09:59:16;;;;;;;5.10;1.82;;;;;;;26.76;43.36;98702.92;1736185;81;21317;-79
2022/06/10 10:01:56;;;;;;;4.70;2.10;;;;;;;26.81;42.26;98710.95;1731486;81;21009;-79
2022/06/10 10:04:50;;;;;;;3.47;2.00;;;;;;;26.74;42.78;98704.04;1734415;81;21090;-79
2022/06/10 10:07:28;;;;;;;;;;;;;;;26.79;42.72;98708.44;1737729;81;21249;-77
2022/06/10 10:10:08;;;;;;;6.05;2.58;;;;;;;26.82;42.48;98712.62;1739762;81;21723;-77
2022/06/10 10:12:43;;;;;;;4.12;1.65;;;;;;;26.82;42.81;98696.62;1743682;80;21597;-83
2022/06/10 10:15:55;;;;;;;4.97;2.12;;;;;;;26.94;42.16;98690.09;1729661;81;21043;-79
2022/06/10 10:18:41;;;;;;;4.75;1.70;;;;;;;26.97;42.59;98699.94;1722341;82;21016;-79
2022/06/10 10:21:21;;;;;;;7.60;2.15;;;;;;;27.02;41.61;98704.83;1736137;81;21039;-78
2022/06/10 10:23:55;;;;;;;4.50;1.80;;;;;;;27.01;42.42;98699.64;1707137;82;21304;-84
2022/06/10 10:26:30;;;;;;;5.50;1.82;;;;;;;27.11;42.50;98713.73;1732137;81;21016;-81
2022/06/10 10:29:02;;;;;;;7.33;2.12;;;;;;;27.21;41.59;98704.31;1744444;81;21049;-79
2022/06/10 10:31:33;;;;;;;6.22;2.30;;;;;;;27.37;41.71;98703.13;1747098;81;21596;-79
2022/06/10 10:34:04;;;;;;;7.28;2.33;;;;;;;27.50;41.62;98697.41;1777248;80;21015;-85
2022/06/10 10:36:45;;;;;;;4.90;1.95;;;;;;;27.64;41.62;98698.16;1779636;80;21015;-79
2022/06/10 10:39:30;;;;;;;5.17;2.10;;;;;;;27.84;41.21;98702.78;1783300;80;20988;-79
2022/06/10 10:42:05;;;;;;;5.42;1.67;;;;;;;28.09;40.51;98712.28;1738400;81;21050;-80
2022/06/10 10:45:04;;;;;;;4.72;2.12;;;;;;;28.41;40.97;98706.25;1736044;82;21328;-79
2022/06/10 10:47:32;;;;;;;11.20;6.22;;;;;;;28.66;40.46;98712.52;1769046;80;20983;-79
2022/06/10 10:50:07;;;;;;;9.83;5.65;;;;;;;28.90;40.10;98713.06;1767132;80;21494;-79
2022/06/10 10:52:39;;;;;;;7.78;1.98;;;;;;;29.18;39.06;98713.30;1778062;80;20967;-79
2022/06/10 10:55:19;;;;;;;3.73;1.60;;;;;;;29.31;39.25;98718.48;1774396;79;21007;-78
2022/06/10 10:58:08;;;;;;;9.23;2.40;;;;;;;29.47;38.79;98713.63;1741584;81;21073;-79
2022/06/10 11:00:42;;;;;;;5.05;1.90;;;;;;;29.58;38.32;98716.95;1739024;81;21586;-78
2022/06/10 11:03:29;;;;;;;8.75;2.50;;;;;;;29.60;37.23;98717.11;1743286;81;21010;-78
2022/06/10 11:06:00;;;;;;;7.10;3.02;;;;;;;29.57;36.76;98714.78;1743319;81;21045;-78
2022/06/10 11:08:34;;;;;;;5.55;2.85;;;;;;;29.43;35.38;98712.80;1734487;81;21054;-78
2022/06/10 11:11:24;;;;;;;5.85;2.10;;;;;;;29.33;36.09;98710.29;1736046;81;22603;-79
2022/06/10 11:14:02;;;;;;;7.03;1.80;;;;;;;29.29;36.24;98712.46;1738284;81;21105;-78
2022/06/10 11:16:42;;;;;;;5.15;1.55;;;;;;;29.23;36.16;98706.95;1735059;81;21037;-78
2022/06/10 11:19:35;;;;;;;5.25;2.20;;;;;;;29.22;36.02;98698.57;1725220;82;21026;-78
2022/06/10 11:22:19;;;;;;;4.78;1.77;;;;;;;29.27;36.43;98692.23;1730144;81;20994;-79
2022/06/10 11:24:52;;;;;;;2.95;1.45;;;;;;;29.35;36.33;98690.37;1731231;82;21006;-78
2022/06/10 11:27:29;;;;;;;6.87;1.90;;;;;;;29.49;35.33;98688.84;1735303;81;21082;-79
2022/06/10 11:30:04;;;;;;;8.90;1.82;;;;;;;29.34;36.02;98691.36;1725356;81;21026;-78
2022/06/10 11:32:39;;;;;;;8.53;2.30;;;;;;;29.11;35.57;98687.67;1722794;82;21329;-77
2022/06/10 11:35:38;;;;;;;2.67;1.75;;;;;;;28.74;35.92;98691.14;1732875;81;21030;-77
2022/06/10 11:38:30;;;;;;;4.45;1.80;;;;;;;28.54;36.16;98686.58;1697190;83;21029;-77
2022/06/10 11:41:19;;;;;;;4.40;2.20;;;;;;;28.38;36.32;98675.82;1733094;81;21151;-78
2022/06/10 11:44:03;;;;;;;3.62;1.87;;;;;;;28.24;36.69;98677.78;1728060;81;21042;-78
2022/06/10 11:46:41;;;;;;;3.22;1.82;;;;;;;28.29;36.72;98665.61;1732585;81;20994;-77
2022/06/10 11:49:33;;;;;;;4.25;1.60;;;;;;;28.23;36.48;98666.74;1769887;80;21022;-78
2022/06/10 11:52:17;;;;;;;3.67;1.98;;;;;;;28.29;37.20;98659.41;1729313;83;21025;-77
2022/06/10 11:55:03;;;;;;;4.70;1.72;;;;;;;28.49;36.67;98656.81;1730750;81;21050;-78
2022/06/10 12:01:00;;;;;;;3.67;1.67;;;;;;;28.75;36.05;98648.69;1733742;81;21006;-78
2022/06/10 12:03:39;;;;;;;5.55;2.00;;;;;;;28.78;36.19;98653.38;1733491;81;20992;-78
2022/06/10 12:06:40;;;;;;;2.60;1.57;;;;;;;28.90;35.73;98638.66;1736606;81;20998;-78
2022/06/10 12:09:44;;;;;;;6.50;2.10;;;;;;;28.92;35.07;98641.50;1737848;82;20990;-78
2022/06/10 12:12:25;;;;;;;6.95;1.77;;;;;;;28.94;35.72;98642.67;1631111;86;21080;-78
2022/06/10 12:14:55;;;;;;;3.75;1.67;;;;;;;29.19;35.59;98646.22;1662542;85;21050;-79
2022/06/10 12:17:39;;;;;;;4.08;1.70;;;;;;;29.08;35.18;98645.18;1666527;85;21635;-78
2022/06/10 12:20:42;;;;;;;3.12;1.72;;;;;;;29.28;35.21;98641.68;1627303;86;21062;-78